富士山静岡空港METAR/TAF(約33km東):

RJNS 041200Z 26006KT 9999 FEW020 BKN/// 22/21 Q1006

TAF RJNS 041105Z 0412/0518 32004KT 9999 FEW020 BECMG 0500/0503 16010KT BECMG 0503/0506 24014KT

ソアリング用気象予報:
BLIPMAP 中部地方
中部日本航空連盟および大野グライダークラブの支援により運営されているソアリング用気象予報BLIPMAPの中部地方版です。

風向風力(Windy.com):
スマホでの閲覧には、アプリ版Windy(Android/iOS)が適切です。

EGC Icon